Time;durP1;ratioP1;P1;durP2;ratioP2;P2;SDS_P1;SDS_P2;PMS_P1;PMS_P2;Temp;Humidity;BMP_temperature;BMP_pressure;BME280_temperature;BME280_humidity;BME280_pressure;Samples;Min_cycle;Max_cycle;Signal;HPM_P1;HPM_P2
2021/08/26 00:01:17;;;;;;;8.03;5.00;;;13.80;99.90;;;;;;1911854;75;21218;-77
2021/08/26 00:06:24;;;;;;;19.00;6.58;;;13.80;99.90;;;;;;1911881;75;21561;-77
2021/08/26 00:08:53;;;;;;;8.13;5.97;;;13.90;99.90;;;;;;1911853;75;21206;-77
2021/08/26 00:11:21;;;;;;;10.70;6.08;;;13.80;99.90;;;;;;1911874;73;21078;-77
2021/08/26 00:13:47;;;;;;;11.73;5.75;;;13.90;99.90;;;;;;1911969;73;21462;-76
2021/08/26 00:16:13;;;;;;;12.13;6.05;;;13.90;99.90;;;;;;1911874;75;21055;-77
2021/08/26 00:18:40;;;;;;;8.03;6.22;;;14.00;99.90;;;;;;1911858;75;21082;-77
2021/08/26 00:21:06;;;;;;;13.30;6.05;;;14.00;99.90;;;;;;1911855;75;21572;-77
2021/08/26 00:23:32;;;;;;;6.55;5.45;;;14.00;99.90;;;;;;1911858;75;21602;-77
2021/08/26 00:25:58;;;;;;;8.73;5.28;;;14.00;99.90;;;;;;1911913;75;21392;-77
2021/08/26 00:28:24;;;;;;;7.20;5.78;;;14.00;99.90;;;;;;1911881;75;21508;-77
2021/08/26 00:30:50;;;;;;;9.95;5.25;;;14.00;99.90;;;;;;1911899;75;21647;-77
2021/08/26 00:33:16;;;;;;;7.65;5.90;;;13.90;99.90;;;;;;1911858;75;21475;-77
2021/08/26 00:35:42;;;;;;;8.35;6.10;;;14.00;99.90;;;;;;1911867;75;21529;-77
2021/08/26 00:38:09;;;;;;;8.05;5.33;;;13.90;99.90;;;;;;1911846;75;21560;-77
2021/08/26 00:40:35;;;;;;;6.58;5.65;;;13.90;99.90;;;;;;1915289;75;21521;-77
2021/08/26 00:43:01;;;;;;;9.55;6.00;;;13.80;99.90;;;;;;1911882;75;21198;-77
2021/08/26 00:45:28;;;;;;;8.68;5.90;;;13.70;99.90;;;;;;1911844;75;21156;-77
2021/08/26 00:47:55;;;;;;;5.97;4.58;;;13.60;99.90;;;;;;1911800;75;21097;-77
2021/08/26 00:50:21;;;;;;;9.03;5.28;;;13.60;99.90;;;;;;1911959;75;21141;-77
2021/08/26 00:52:47;;;;;;;7.42;6.03;;;13.60;99.90;;;;;;1914709;75;21050;-77
2021/08/26 00:55:13;;;;;;;8.88;6.42;;;13.50;99.90;;;;;;1912552;75;21139;-77
2021/08/26 00:57:39;;;;;;;6.90;5.50;;;13.50;99.90;;;;;;1912063;75;21076;-77
2021/08/26 01:00:05;;;;;;;7.95;5.53;;;13.50;99.90;;;;;;1912034;75;21157;-77
2021/08/26 01:02:32;;;;;;;14.28;6.20;;;13.40;99.90;;;;;;1912056;75;21147;-78
2021/08/26 01:04:58;;;;;;;9.70;6.15;;;13.40;99.90;;;;;;1911966;75;21511;-77
2021/08/26 01:07:25;;;;;;;6.58;5.78;;;13.30;99.90;;;;;;1911944;75;21440;-77
2021/08/26 01:09:51;;;;;;;6.80;5.35;;;13.30;99.90;;;;;;1911952;75;21144;-77
2021/08/26 01:12:17;;;;;;;7.47;6.03;;;13.20;99.90;;;;;;1912073;75;21070;-77
2021/08/26 01:14:44;;;;;;;21.73;6.05;;;13.10;99.90;;;;;;1911882;75;21086;-77
2021/08/26 01:17:10;;;;;;;7.92;6.00;;;13.10;99.90;;;;;;1912054;75;21483;-77
2021/08/26 01:19:36;;;;;;;10.35;6.08;;;13.00;99.90;;;;;;1912007;75;21451;-77
2021/08/26 01:22:02;;;;;;;10.60;6.17;;;12.90;99.90;;;;;;1912037;75;21074;-77
2021/08/26 01:24:28;;;;;;;7.05;6.33;;;12.90;99.90;;;;;;1911849;75;21070;-77
2021/08/26 01:26:54;;;;;;;8.63;5.70;;;12.90;99.90;;;;;;1912059;75;21078;-77
2021/08/26 01:29:21;;;;;;;12.23;6.67;;;12.80;99.90;;;;;;1911846;75;21113;-77
2021/08/26 01:31:47;;;;;;;7.92;5.87;;;12.80;99.90;;;;;;1912143;75;21086;-77
2021/08/26 01:34:13;;;;;;;7.53;6.03;;;12.70;99.90;;;;;;1912035;75;21066;-77
2021/08/26 01:36:39;;;;;;;9.60;6.40;;;12.70;99.90;;;;;;1911945;75;21055;-77
2021/08/26 01:39:05;;;;;;;9.08;6.33;;;12.70;99.90;;;;;;1912001;75;21047;-77
2021/08/26 01:41:31;;;;;;;7.50;5.40;;;12.60;99.90;;;;;;1911948;75;21058;-77
2021/08/26 01:43:57;;;;;;;11.22;6.90;;;12.60;99.90;;;;;;1912037;75;21078;-77
2021/08/26 01:46:24;;;;;;;10.15;6.22;;;12.50;99.90;;;;;;1911937;75;21157;-77
2021/08/26 01:48:50;;;;;;;6.60;5.83;;;12.50;99.90;;;;;;1912008;75;21070;-76
2021/08/26 01:51:16;;;;;;;9.80;5.95;;;12.50;99.90;;;;;;1911841;75;21081;-77
2021/08/26 01:53:42;;;;;;;8.93;6.70;;;12.50;99.90;;;;;;1912124;75;21082;-77
2021/08/26 01:56:08;;;;;;;9.05;5.97;;;12.50;99.90;;;;;;1911953;75;21102;-77
2021/08/26 01:58:34;;;;;;;7.47;6.00;;;12.40;99.90;;;;;;1912021;75;21575;-77
2021/08/26 02:01:00;;;;;;;6.55;5.80;;;12.40;99.90;;;;;;1911952;75;21547;-77
2021/08/26 02:03:26;;;;;;;7.42;6.33;;;12.40;99.90;;;;;;1911935;75;21478;-77
2021/08/26 02:05:53;;;;;;;8.70;6.58;;;12.40;99.90;;;;;;1912013;75;21431;-77
2021/08/26 02:08:19;;;;;;;9.45;5.40;;;12.40;99.90;;;;;;1912203;75;21503;-77
2021/08/26 02:10:45;;;;;;;6.60;5.87;;;12.40;99.90;;;;;;1911977;75;21591;-77
2021/08/26 02:13:11;;;;;;;7.97;6.08;;;12.30;99.90;;;;;;1912171;75;21529;-77
2021/08/26 02:15:37;;;;;;;7.80;5.95;;;12.30;99.90;;;;;;1911943;75;21043;-77
2021/08/26 02:18:03;;;;;;;8.93;6.10;;;12.30;99.90;;;;;;1912152;75;21152;-77
2021/08/26 02:20:29;;;;;;;7.72;5.60;;;12.20;99.90;;;;;;1911939;75;21152;-77
2021/08/26 02:22:55;;;;;;;7.40;5.83;;;12.20;99.90;;;;;;1912138;75;21145;-77
2021/08/26 02:25:21;;;;;;;7.42;5.72;;;12.10;99.90;;;;;;1911955;75;21078;-77
2021/08/26 02:27:48;;;;;;;7.53;5.80;;;12.20;99.90;;;;;;1912156;75;21066;-77
2021/08/26 02:30:14;;;;;;;7.58;5.72;;;12.10;99.90;;;;;;1911954;75;21070;-77
2021/08/26 02:32:40;;;;;;;6.90;5.90;;;12.10;99.90;;;;;;1912162;75;21153;-77
2021/08/26 02:35:06;;;;;;;6.78;5.83;;;12.10;99.90;;;;;;1911962;75;21039;-77
2021/08/26 02:37:32;;;;;;;9.25;7.15;;;12.00;99.90;;;;;;1912029;75;21083;-77
2021/08/26 02:39:58;;;;;;;8.55;5.92;;;12.00;99.90;;;;;;1912025;75;21168;-77
2021/08/26 02:42:24;;;;;;;9.85;6.80;;;12.00;99.90;;;;;;1912056;75;21079;-77
2021/08/26 02:44:50;;;;;;;8.45;5.67;;;12.00;99.90;;;;;;1912042;75;21043;-76
2021/08/26 02:47:17;;;;;;;9.38;6.78;;;11.90;99.90;;;;;;1911951;75;21058;-77
2021/08/26 02:49:43;;;;;;;9.08;6.35;;;11.90;99.90;;;;;;1912042;75;21070;-77
2021/08/26 02:52:09;;;;;;;7.30;5.80;;;11.80;99.90;;;;;;1912233;75;21050;-77
2021/08/26 02:54:35;;;;;;;7.05;5.80;;;11.80;99.90;;;;;;1911941;75;21043;-77
2021/08/26 02:57:01;;;;;;;8.83;6.40;;;11.80;99.90;;;;;;1912132;75;21090;-77
2021/08/26 02:59:27;;;;;;;7.67;6.03;;;11.80;99.90;;;;;;1911932;75;21070;-77
2021/08/26 03:01:53;;;;;;;7.15;6.08;;;11.80;99.90;;;;;;1912156;75;21078;-77
2021/08/26 03:04:19;;;;;;;11.08;6.85;;;11.80;99.90;;;;;;1912012;75;21039;-77
2021/08/26 03:06:46;;;;;;;7.58;6.50;;;11.80;99.90;;;;;;1912012;75;21086;-77
2021/08/26 03:09:12;;;;;;;12.03;7.25;;;11.80;99.90;;;;;;1912006;75;21126;-77
2021/08/26 03:11:39;;;;;;;8.28;6.75;;;11.80;99.90;;;;;;1912065;75;21197;-77
2021/08/26 03:14:05;;;;;;;9.00;6.70;;;11.90;99.90;;;;;;1912220;75;21133;-77
2021/08/26 03:16:31;;;;;;;6.92;6.17;;;12.00;99.90;;;;;;1912058;75;21129;-77
2021/08/26 03:18:57;;;;;;;6.75;5.80;;;12.00;99.90;;;;;;1911980;75;21143;-77
2021/08/26 03:21:23;;;;;;;7.12;6.10;;;12.10;99.90;;;;;;1912107;75;21126;-77
2021/08/26 03:23:49;;;;;;;10.48;6.15;;;12.10;99.90;;;;;;1912016;75;21152;-78
2021/08/26 03:26:17;;;;;;;7.78;6.17;;;12.10;99.90;;;;;;1911997;75;21086;-77
2021/08/26 03:28:43;;;;;;;7.03;6.17;;;12.10;99.90;;;;;;1912082;75;21222;-77
2021/08/26 03:31:09;;;;;;;6.92;5.92;;;12.20;99.90;;;;;;1912101;75;21079;-77
2021/08/26 03:33:35;;;;;;;10.13;6.35;;;12.10;99.90;;;;;;1911912;75;21121;-77
2021/08/26 03:36:01;;;;;;;7.08;6.37;;;12.20;99.90;;;;;;1912088;75;21215;-77
2021/08/26 03:38:27;;;;;;;9.90;6.53;;;12.20;99.90;;;;;;1911854;75;21086;-77
2021/08/26 03:40:53;;;;;;;9.13;7.37;;;12.20;99.90;;;;;;1912082;75;21039;-77
2021/08/26 03:43:20;;;;;;;7.55;6.47;;;12.30;99.90;;;;;;1911980;75;21090;-77
2021/08/26 03:45:48;;;;;;;9.05;6.55;;;12.30;99.90;;;;;;1912064;75;21081;-77
2021/08/26 03:48:13;;;;;;;9.40;7.42;;;12.30;99.90;;;;;;1912087;73;21144;-77
2021/08/26 03:50:40;;;;;;;7.75;6.95;;;12.30;99.90;;;;;;1912092;75;21040;-77
2021/08/26 03:53:08;;;;;;;11.03;7.33;;;12.40;99.90;;;;;;1912053;75;21090;-77
2021/08/26 03:55:34;;;;;;;9.70;8.30;;;12.40;99.90;;;;;;1911989;75;21151;-77
2021/08/26 03:58:00;;;;;;;13.72;7.92;;;12.50;99.90;;;;;;1911998;75;21075;-77
2021/08/26 04:00:26;;;;;;;13.45;9.93;;;12.40;99.90;;;;;;1911939;75;21048;-77
2021/08/26 04:02:52;;;;;;;13.98;9.38;;;12.40;99.90;;;;;;1912050;75;21079;-77
2021/08/26 04:05:18;;;;;;;10.48;9.15;;;12.40;99.90;;;;;;1912049;75;21078;-77
2021/08/26 04:07:44;;;;;;;14.70;8.10;;;12.50;99.90;;;;;;1912080;75;21039;-77
2021/08/26 04:10:10;;;;;;;9.88;8.85;;;12.40;99.90;;;;;;1912178;75;21082;-76
2021/08/26 04:12:36;;;;;;;10.60;8.38;;;12.40;99.90;;;;;;1912136;75;21156;-76
2021/08/26 04:15:03;;;;;;;11.15;7.90;;;12.40;99.90;;;;;;1912107;75;21079;-76
2021/08/26 04:17:29;;;;;;;8.70;7.72;;;12.40;99.90;;;;;;1912238;75;21066;-75
2021/08/26 04:19:56;;;;;;;11.78;8.05;;;12.50;99.90;;;;;;1912097;75;21077;-77
2021/08/26 04:22:22;;;;;;;10.15;7.60;;;12.40;99.90;;;;;;1912072;75;21078;-77
2021/08/26 04:24:48;;;;;;;9.03;7.47;;;12.50;99.90;;;;;;1912201;75;21039;-77
2021/08/26 04:27:15;;;;;;;8.43;7.47;;;12.40;99.90;;;;;;1911864;75;21127;-78
2021/08/26 04:29:41;;;;;;;10.13;7.17;;;12.50;99.90;;;;;;1912103;75;21152;-77
2021/08/26 04:32:07;;;;;;;8.28;7.12;;;12.40;99.90;;;;;;1911847;75;21086;-77
2021/08/26 04:34:33;;;;;;;13.35;7.92;;;12.40;99.90;;;;;;1912073;75;21043;-77
2021/08/26 04:36:59;;;;;;;9.50;7.70;;;12.40;99.90;;;;;;1911877;75;21086;-77
2021/08/26 04:39:25;;;;;;;10.70;7.40;;;12.50;99.90;;;;;;1912183;75;21086;-77
2021/08/26 04:41:51;;;;;;;7.92;7.10;;;12.50;99.90;;;;;;1911912;75;21159;-77
2021/08/26 04:44:17;;;;;;;8.08;7.28;;;12.60;99.90;;;;;;1909410;74;21081;-77
2021/08/26 04:46:44;;;;;;;8.50;7.60;;;12.60;99.90;;;;;;1913741;74;21459;-77
2021/08/26 04:49:10;;;;;;;12.88;8.48;;;12.60;99.90;;;;;;1912086;74;21494;-77
2021/08/26 04:51:36;;;;;;;12.60;8.20;;;12.70;99.90;;;;;;1912069;75;21407;-77
2021/08/26 04:54:02;;;;;;;17.73;8.73;;;12.70;99.90;;;;;;1911982;75;21569;-77
2021/08/26 04:56:28;;;;;;;9.33;7.83;;;12.70;99.90;;;;;;1912304;75;21552;-77
2021/08/26 04:58:54;;;;;;;13.20;8.85;;;12.80;99.90;;;;;;1911848;75;21534;-77
2021/08/26 05:01:20;;;;;;;9.30;8.03;;;12.70;99.90;;;;;;1912019;75;21509;-77
2021/08/26 05:03:46;;;;;;;12.68;7.90;;;12.80;99.90;;;;;;1911895;75;21494;-77
2021/08/26 05:06:13;;;;;;;9.33;7.42;;;12.90;99.90;;;;;;1912281;75;21086;-77
2021/08/26 05:08:39;;;;;;;8.20;7.22;;;13.10;99.90;;;;;;1912030;75;21148;-76
2021/08/26 05:11:05;;;;;;;9.23;7.05;;;13.10;99.90;;;;;;1911883;75;21043;-77
2021/08/26 05:13:31;;;;;;;10.10;7.42;;;13.10;99.90;;;;;;1912000;75;21140;-77
2021/08/26 05:15:57;;;;;;;9.33;7.10;;;13.00;99.90;;;;;;1911986;75;21084;-77
2021/08/26 05:18:23;;;;;;;7.83;5.95;;;13.10;99.90;;;;;;1913598;75;21138;-77
2021/08/26 05:20:49;;;;;;;12.60;9.95;;;13.20;99.90;;;;;;1913560;75;21047;-77
2021/08/26 05:23:15;;;;;;;17.37;7.37;;;13.10;99.90;;;;;;1912061;75;21147;-77
2021/08/26 05:25:42;;;;;;;11.97;7.05;;;13.10;99.90;;;;;;1911896;75;21050;-77
2021/08/26 05:28:08;;;;;;;10.88;7.35;;;13.20;99.90;;;;;;1912187;75;21019;-77
2021/08/26 05:30:37;;;;;;;8.00;7.20;;;13.10;99.90;;;;;;1911979;75;21042;-77
2021/08/26 05:33:03;;;;;;;10.20;7.58;;;13.20;99.90;;;;;;1911858;75;21058;-78
2021/08/26 05:35:29;;;;;;;7.70;6.95;;;13.30;99.90;;;;;;1911925;75;21074;-77
2021/08/26 05:37:55;;;;;;;8.25;6.75;;;13.30;99.90;;;;;;1911925;75;21156;-77
2021/08/26 05:40:21;;;;;;;12.18;6.87;;;13.50;99.90;;;;;;1911927;75;21079;-77
2021/08/26 05:42:47;;;;;;;8.53;6.70;;;13.50;99.90;;;;;;1911904;75;21070;-77
2021/08/26 05:45:13;;;;;;;8.08;6.40;;;13.40;99.90;;;;;;1911952;75;21151;-78
2021/08/26 05:47:40;;;;;;;11.97;6.92;;;13.50;99.90;;;;;;1912064;75;21123;-78
2021/08/26 05:50:06;;;;;;;9.60;7.42;;;13.50;99.90;;;;;;1912062;75;21043;-77
2021/08/26 05:52:32;;;;;;;9.13;6.97;;;13.60;99.90;;;;;;1911936;75;21054;-77
2021/08/26 05:54:58;;;;;;;11.33;6.67;;;13.70;99.90;;;;;;1911914;75;21120;-77
2021/08/26 05:57:24;;;;;;;13.10;7.70;;;13.60;99.90;;;;;;1911922;75;21087;-77
2021/08/26 05:59:50;;;;;;;10.13;7.30;;;13.60;99.90;;;;;;1911903;75;21215;-77
2021/08/26 06:02:16;;;;;;;8.58;6.25;;;13.60;99.90;;;;;;1911895;75;21229;-77
2021/08/26 06:04:42;;;;;;;8.78;7.05;;;13.70;99.90;;;;;;1912003;75;21199;-77
2021/08/26 06:07:09;;;;;;;11.73;6.60;;;13.70;99.90;;;;;;1911807;75;21147;-77
2021/08/26 06:09:35;;;;;;;11.85;7.20;;;13.70;99.90;;;;;;1912123;75;21087;-77
2021/08/26 06:12:01;;;;;;;8.05;6.25;;;13.80;99.90;;;;;;1912402;75;21043;-77
2021/08/26 06:14:27;;;;;;;9.68;6.45;;;13.90;99.90;;;;;;1912775;75;21104;-77
2021/08/26 06:16:53;;;;;;;11.28;6.70;;;14.10;99.90;;;;;;1912064;75;21091;-77
2021/08/26 06:19:19;;;;;;;12.30;6.65;;;14.00;99.90;;;;;;1913030;75;21128;-77
2021/08/26 06:21:45;;;;;;;12.75;7.80;;;14.10;99.90;;;;;;1912700;75;21047;-77
2021/08/26 06:24:11;;;;;;;12.25;7.03;;;13.90;99.90;;;;;;1911926;75;21104;-77
2021/08/26 06:26:38;;;;;;;9.10;6.65;;;13.90;99.90;;;;;;1912036;75;21086;-78
2021/08/26 06:29:04;;;;;;;9.80;6.85;;;13.80;99.90;;;;;;1911860;75;21161;-77
2021/08/26 06:31:30;;;;;;;9.43;6.25;;;13.80;99.90;;;;;;1912078;75;21043;-77
2021/08/26 06:33:56;;;;;;;10.28;7.20;;;13.90;99.90;;;;;;1911821;75;21147;-77
2021/08/26 06:36:22;;;;;;;11.38;6.90;;;13.80;99.90;;;;;;1912065;75;21117;-78
2021/08/26 06:38:48;;;;;;;15.60;6.00;;;13.80;99.90;;;;;;1911936;75;21105;-78
2021/08/26 06:41:14;;;;;;;9.50;6.87;;;13.80;99.90;;;;;;1912027;75;21152;-77
2021/08/26 06:43:41;;;;;;;6.83;5.72;;;13.90;99.90;;;;;;1912011;75;21151;-77
2021/08/26 06:46:07;;;;;;;9.18;6.95;;;14.00;99.90;;;;;;1912098;75;21144;-78
2021/08/26 06:48:33;;;;;;;11.20;7.00;;;14.00;99.90;;;;;;1911998;75;21126;-77
2021/08/26 06:50:59;;;;;;;10.82;6.75;;;13.90;99.90;;;;;;1912119;75;21144;-78
2021/08/26 06:53:25;;;;;;;10.05;6.78;;;13.90;99.90;;;;;;1911975;75;21144;-78
2021/08/26 06:55:51;;;;;;;9.28;6.87;;;13.80;99.90;;;;;;1912018;75;21148;-77
2021/08/26 06:58:17;;;;;;;8.68;6.53;;;13.90;99.90;;;;;;1912048;75;21048;-77
2021/08/26 07:00:46;;;;;;;15.18;7.50;;;14.00;99.90;;;;;;1912045;75;21086;-77
2021/08/26 07:03:12;;;;;;;10.43;7.47;;;14.10;99.90;;;;;;1913015;75;21106;-78
2021/08/26 07:05:39;;;;;;;10.38;7.70;;;14.00;99.90;;;;;;1911952;75;21066;-77
2021/08/26 07:08:05;;;;;;;11.80;7.05;;;14.00;99.90;;;;;;1912201;75;21090;-78
2021/08/26 07:10:31;;;;;;;11.18;6.83;;;14.20;99.90;;;;;;1912074;75;21156;-79
2021/08/26 07:12:57;;;;;;;16.50;7.47;;;14.20;99.90;;;;;;1912143;75;21070;-78
2021/08/26 07:15:25;;;;;;;10.53;6.67;;;14.20;99.90;;;;;;1914148;75;21086;-77
2021/08/26 07:17:51;;;;;;;7.12;6.42;;;14.30;99.90;;;;;;1912265;75;21518;-77
2021/08/26 07:20:17;;;;;;;9.93;7.28;;;14.20;99.90;;;;;;1918249;75;21160;-78
2021/08/26 07:22:44;;;;;;;8.75;6.62;;;14.10;99.90;;;;;;1913253;75;21051;-79
2021/08/26 07:25:10;;;;;;;13.32;7.10;;;14.20;99.90;;;;;;1915641;75;21078;-78
2021/08/26 07:27:36;;;;;;;15.55;6.67;;;14.30;99.90;;;;;;1912490;74;21094;-79
2021/08/26 07:30:03;;;;;;;10.82;6.35;;;14.20;99.90;;;;;;1912467;75;21117;-77
2021/08/26 07:32:29;;;;;;;9.33;6.97;;;14.30;99.90;;;;;;1914189;75;21051;-79
2021/08/26 07:34:55;;;;;;;10.18;6.50;;;14.40;99.90;;;;;;1912473;75;21074;-79
2021/08/26 07:37:21;;;;;;;15.63;6.45;;;14.40;99.90;;;;;;1912542;75;21066;-79
2021/08/26 07:39:47;;;;;;;10.35;6.67;;;14.40;99.90;;;;;;1912630;75;21082;-78
2021/08/26 07:42:13;;;;;;;9.85;6.62;;;14.40;99.90;;;;;;1912379;75;21086;-75
2021/08/26 07:44:39;;;;;;;13.30;7.45;;;14.50;99.90;;;;;;1912278;75;21144;-77
2021/08/26 07:47:05;;;;;;;9.53;7.28;;;14.50;99.90;;;;;;1912250;75;21070;-78
2021/08/26 07:49:32;;;;;;;12.37;8.88;;;14.50;99.90;;;;;;1912270;75;21071;-78
2021/08/26 07:51:58;;;;;;;9.65;7.17;;;14.60;99.90;;;;;;1912271;75;21016;-78
2021/08/26 07:54:24;;;;;;;19.45;7.72;;;14.70;99.90;;;;;;1911998;75;21151;-77
2021/08/26 07:56:50;;;;;;;18.55;6.78;;;14.70;99.90;;;;;;1911969;75;21078;-75
2021/08/26 07:59:16;;;;;;;15.38;6.70;;;14.70;99.90;;;;;;1911982;75;21163;-77
2021/08/26 08:01:42;;;;;;;10.85;7.00;;;14.80;99.90;;;;;;1912034;75;21067;-79
2021/08/26 08:04:08;;;;;;;11.90;7.28;;;14.80;99.90;;;;;;1912100;75;21074;-77
2021/08/26 08:06:35;;;;;;;14.13;8.85;;;14.80;99.90;;;;;;1911950;75;21462;-77
2021/08/26 08:09:01;;;;;;;14.50;7.47;;;14.80;99.90;;;;;;1912034;75;21439;-78
2021/08/26 08:11:27;;;;;;;11.38;6.90;;;14.80;99.90;;;;;;1911896;75;21447;-78
2021/08/26 08:13:53;;;;;;;10.03;7.65;;;14.90;99.90;;;;;;1912099;75;21557;-78
2021/08/26 08:16:19;;;;;;;12.98;7.78;;;15.00;99.90;;;;;;1912053;75;21460;-77
2021/08/26 08:18:45;;;;;;;12.80;7.67;;;15.00;99.90;;;;;;1912184;75;21486;-78
2021/08/26 08:21:11;;;;;;;9.58;7.12;;;15.00;99.90;;;;;;1912152;75;21572;-77
2021/08/26 08:23:38;;;;;;;9.48;6.83;;;15.00;99.90;;;;;;1911993;75;21141;-77
2021/08/26 08:26:10;;;;;;;11.35;8.30;;;15.10;99.90;;;;;;1911967;75;21074;-78
2021/08/26 08:28:31;;;;;;;22.22;8.15;;;15.10;99.90;;;;;;1912685;73;21078;-77
2021/08/26 08:30:58;;;;;;;10.50;7.50;;;15.30;99.90;;;;;;1911996;75;21145;-77
2021/08/26 08:33:24;;;;;;;11.90;8.43;;;15.50;99.90;;;;;;1911958;75;21078;-77
2021/08/26 08:35:50;;;;;;;13.72;7.55;;;15.40;99.90;;;;;;1911980;75;21071;-77
2021/08/26 08:38:16;;;;;;;12.95;7.20;;;15.50;99.90;;;;;;1911968;75;21142;-77
2021/08/26 08:40:42;;;;;;;9.15;7.05;;;15.50;99.90;;;;;;1912014;75;21157;-77
2021/08/26 08:43:08;;;;;;;13.03;7.83;;;15.60;99.90;;;;;;1912008;75;21075;-77
2021/08/26 08:45:34;;;;;;;12.68;8.58;;;15.60;99.90;;;;;;1911990;75;21039;-77
2021/08/26 08:48:00;;;;;;;13.15;8.65;;;15.50;99.90;;;;;;1911989;75;21148;-77
2021/08/26 08:50:27;;;;;;;14.07;8.93;;;15.30;99.90;;;;;;1912124;75;21074;-77
2021/08/26 08:52:53;;;;;;;13.03;8.50;;;15.30;99.90;;;;;;1912002;75;21075;-77
2021/08/26 08:55:19;;;;;;;13.60;8.60;;;15.30;99.90;;;;;;1912028;75;21051;-77
2021/08/26 08:57:45;;;;;;;11.73;8.80;;;15.50;99.90;;;;;;1912125;75;21046;-77
2021/08/26 09:00:12;;;;;;;14.15;9.35;;;15.50;99.90;;;;;;1911874;75;21078;-77
2021/08/26 09:02:38;;;;;;;10.78;8.53;;;15.40;99.90;;;;;;1912093;75;21067;-76
2021/08/26 09:05:04;;;;;;;10.98;8.48;;;15.30;99.90;;;;;;1911884;75;21118;-77
2021/08/26 09:07:30;;;;;;;13.35;9.15;;;15.30;99.90;;;;;;1912106;75;21070;-77
2021/08/26 09:09:56;;;;;;;10.28;8.38;;;15.30;99.90;;;;;;1911903;75;21070;-77
2021/08/26 09:12:22;;;;;;;15.25;9.58;;;15.40;99.90;;;;;;1912162;75;21140;-78
2021/08/26 09:14:48;;;;;;;10.50;8.88;;;15.40;99.90;;;;;;1912006;75;21039;-78
2021/08/26 09:17:14;;;;;;;14.70;9.70;;;15.60;99.90;;;;;;1912030;75;21074;-78
2021/08/26 09:19:43;;;;;;;12.50;9.53;;;15.70;99.90;;;;;;1911999;75;21074;-79
2021/08/26 09:22:09;;;;;;;10.68;9.28;;;15.80;99.90;;;;;;1911937;73;21517;-78
2021/08/26 09:24:36;;;;;;;12.68;9.03;;;16.00;99.90;;;;;;1912114;75;21152;-78
2021/08/26 09:27:02;;;;;;;11.45;8.35;;;15.90;99.90;;;;;;1912033;75;21078;-78
2021/08/26 09:29:28;;;;;;;12.20;9.15;;;16.10;99.90;;;;;;1911954;75;21086;-78
2021/08/26 09:31:56;;;;;;;14.73;9.60;;;16.30;99.90;;;;;;1912038;75;21187;-78
2021/08/26 09:34:22;;;;;;;12.95;9.05;;;16.20;99.90;;;;;;1911957;75;21059;-79
2021/08/26 09:36:48;;;;;;;12.65;9.60;;;16.20;99.90;;;;;;1912172;75;21072;-79
2021/08/26 09:39:14;;;;;;;14.35;10.60;;;16.00;99.90;;;;;;1911958;75;21074;-78
2021/08/26 09:41:40;;;;;;;21.55;10.45;;;15.80;99.90;;;;;;1911985;75;21120;-78
2021/08/26 09:44:07;;;;;;;13.03;9.05;;;15.60;99.90;;;;;;1911949;75;21070;-76
2021/08/26 09:46:33;;;;;;;13.60;9.75;;;15.50;99.90;;;;;;1911943;75;21140;-75
2021/08/26 09:48:59;;;;;;;14.95;10.82;;;15.50;99.90;;;;;;1913727;75;21167;-75
2021/08/26 09:51:25;;;;;;;14.28;10.15;;;15.30;99.90;;;;;;1911851;75;21051;-76
2021/08/26 09:53:51;;;;;;;11.78;10.45;;;15.50;99.90;;;;;;1911966;75;21082;-76
2021/08/26 09:56:17;;;;;;;13.80;10.43;;;15.60;99.90;;;;;;1911114;74;21085;-76
2021/08/26 09:58:43;;;;;;;11.95;9.03;;;15.70;99.90;;;;;;1911838;75;21040;-77
2021/08/26 10:01:09;;;;;;;10.20;8.33;;;15.80;99.90;;;;;;1917110;75;21563;-76
2021/08/26 10:03:36;;;;;;;13.13;9.88;;;15.70;99.90;;;;;;1913524;75;21518;-76
2021/08/26 10:06:02;;;;;;;11.97;8.38;;;15.60;99.90;;;;;;1911928;75;21392;-76
2021/08/26 10:08:28;;;;;;;11.35;7.87;;;15.60;99.90;;;;;;1910896;75;21509;-76
2021/08/26 10:10:54;;;;;;;11.22;8.08;;;15.50;99.90;;;;;;1912036;75;21616;-77
2021/08/26 10:13:20;;;;;;;10.35;7.90;;;15.70;99.90;;;;;;1911858;75;21078;-77
2021/08/26 10:15:46;;;;;;;8.78;7.35;;;16.10;99.90;;;;;;1911940;75;21067;-76
2021/08/26 10:18:13;;;;;;;8.58;7.75;;;16.30;99.90;;;;;;1911907;75;21070;-77
2021/08/26 10:20:39;;;;;;;16.20;7.42;;;16.30;99.90;;;;;;1913765;75;21144;-76
2021/08/26 10:23:06;;;;;;;9.45;7.10;;;16.40;99.90;;;;;;1912395;75;21047;-77
2021/08/26 10:25:33;;;;;;;4.75;4.25;;;16.30;99.90;;;;;;1912089;75;21152;-77
2021/08/26 10:27:59;;;;;;;6.75;5.42;;;16.10;99.90;;;;;;1911910;75;21156;-77
2021/08/26 10:30:25;;;;;;;4.60;4.17;;;15.80;99.90;;;;;;1912068;75;21075;-78
2021/08/26 10:32:51;;;;;;;12.45;4.55;;;15.80;99.90;;;;;;1911992;75;21152;-76
2021/08/26 10:35:17;;;;;;;4.12;3.77;;;15.70;99.90;;;;;;1912147;75;21070;-76
2021/08/26 10:37:43;;;;;;;5.05;3.70;;;15.70;99.90;;;;;;1911915;75;21144;-78
2021/08/26 10:40:10;;;;;;;3.80;3.40;;;15.70;99.90;;;;;;1912058;75;21160;-77
2021/08/26 10:42:36;;;;;;;15.53;2.87;;;15.60;99.90;;;;;;1911931;75;21127;-77
2021/08/26 10:45:02;;;;;;;2.83;2.60;;;15.50;99.90;;;;;;1912109;75;21160;-78
2021/08/26 10:47:28;;;;;;;3.25;2.90;;;15.50;99.90;;;;;;1911923;75;21144;-78
2021/08/26 10:49:54;;;;;;;2.92;2.45;;;15.50;99.90;;;;;;1912056;75;21133;-78
2021/08/26 10:52:20;;;;;;;2.55;2.33;;;15.50;99.90;;;;;;1911901;75;21070;-77
2021/08/26 10:54:46;;;;;;;2.52;2.02;;;15.60;99.90;;;;;;1912040;75;21074;-77
2021/08/26 10:57:12;;;;;;;3.90;2.20;;;15.80;99.90;;;;;;1911984;75;21071;-78
2021/08/26 10:59:39;;;;;;;4.17;2.90;;;15.90;99.90;;;;;;1912221;75;21044;-79
2021/08/26 11:02:05;;;;;;;2.90;2.60;;;16.30;99.90;;;;;;1911890;75;21082;-79
2021/08/26 11:04:33;;;;;;;2.50;2.15;;;16.50;99.90;;;;;;1912046;75;21152;-79
2021/08/26 11:06:59;;;;;;;2.52;2.33;;;16.90;99.90;;;;;;1911815;73;21074;-78
2021/08/26 11:09:26;;;;;;;6.67;2.83;;;17.10;99.90;;;;;;1912129;75;21090;-79
2021/08/26 11:11:58;;;;;;;2.83;2.30;;;17.40;99.90;;;;;;1911972;75;21078;-79
2021/08/26 11:14:25;;;;;;;2.30;2.10;;;17.50;99.90;;;;;;1912714;74;21078;-77
2021/08/26 11:16:51;;;;;;;3.27;2.27;;;17.50;99.90;;;;;;1911927;74;21152;-79
2021/08/26 11:19:17;;;;;;;2.80;2.50;;;17.40;99.90;;;;;;1912229;75;21039;-78
2021/08/26 11:24:11;;;;;;;2.92;2.47;;;17.60;99.90;;;;;;1911966;75;21156;-78
2021/08/26 11:26:37;;;;;;;5.70;2.20;;;18.00;99.90;;;;;;1912028;75;21145;-78
2021/08/26 11:29:03;;;;;;;2.55;2.35;;;18.30;99.90;;;;;;1912257;75;21066;-78
2021/08/26 11:31:29;;;;;;;2.83;2.40;;;18.20;99.90;;;;;;1912156;75;21079;-78
2021/08/26 11:33:55;;;;;;;3.10;2.60;;;18.50;99.90;;;;;;1911983;75;21071;-78
2021/08/26 11:36:21;;;;;;;3.85;2.25;;;18.70;99.90;;;;;;1912116;75;21039;-78
2021/08/26 11:38:49;;;;;;;2.62;2.42;;;18.90;99.90;;;;;;1911930;75;21589;-77
2021/08/26 11:41:15;;;;;;;2.67;2.10;;;19.00;99.90;;;;;;1912031;75;21486;-77
2021/08/26 11:43:41;;;;;;;3.55;2.50;;;19.10;99.90;;;;;;1911889;75;21580;-77
2021/08/26 11:46:08;;;;;;;3.90;2.85;;;18.80;99.90;;;;;;1912063;75;21082;-77
2021/08/26 11:48:34;;;;;;;5.97;3.00;;;18.80;99.90;;;;;;1912184;75;21344;-78
2021/08/26 11:51:02;;;;;;;3.17;2.87;;;18.70;99.90;;;;;;1912235;75;21046;-78
2021/08/26 11:53:28;;;;;;;4.85;3.22;;;18.50;99.90;;;;;;1912118;75;21082;-78
2021/08/26 11:55:54;;;;;;;4.53;3.42;;;18.40;99.90;;;;;;1911884;75;21099;-79
2021/08/26 11:58:20;;;;;;;3.60;3.30;;;18.30;99.90;;;;;;1912570;75;21070;-79
2021/08/26 12:00:48;;;;;;;4.50;3.33;;;18.30;99.90;;;;;;1912543;75;21155;-79
2021/08/26 12:03:14;;;;;;;5.58;3.60;;;18.30;99.90;;;;;;1912677;73;21510;-79
2021/08/26 12:05:41;;;;;;;4.25;3.67;;;18.20;99.90;;;;;;1912537;75;21504;-80
2021/08/26 12:08:07;;;;;;;5.87;3.92;;;18.10;99.90;;;;;;1912699;75;21051;-79
2021/08/26 12:10:33;;;;;;;5.83;3.85;;;17.90;99.90;;;;;;1912526;75;21209;-79
2021/08/26 12:13:00;;;;;;;4.67;4.15;;;17.70;99.90;;;;;;1912818;75;21075;-79
2021/08/26 12:15:26;;;;;;;6.15;4.20;;;17.70;99.90;;;;;;1912533;75;21502;-78
2021/08/26 12:17:52;;;;;;;8.75;4.12;;;17.60;99.90;;;;;;1912724;75;21148;-79
2021/08/26 12:20:18;;;;;;;4.80;3.87;;;17.60;99.90;;;;;;1912583;75;21043;-79
2021/08/26 12:22:47;;;;;;;5.78;4.10;;;17.50;99.90;;;;;;1912601;75;21102;-78
2021/08/26 12:25:12;;;;;;;4.45;4.00;;;17.60;99.90;;;;;;1912831;73;21070;-79
2021/08/26 12:27:41;;;;;;;9.38;3.87;;;17.60;99.90;;;;;;1912803;75;21082;-80
2021/08/26 12:30:07;;;;;;;5.33;4.00;;;17.60;99.90;;;;;;1912731;75;21070;-78
2021/08/26 12:32:33;;;;;;;6.03;4.35;;;17.80;99.90;;;;;;1912585;75;21148;-78
2021/08/26 12:34:59;;;;;;;6.45;4.10;;;17.80;99.90;;;;;;1915591;75;21051;-78
2021/08/26 12:37:25;;;;;;;6.37;4.33;;;17.80;99.90;;;;;;1912258;75;21216;-78
2021/08/26 12:39:51;;;;;;;5.08;4.10;;;17.80;99.90;;;;;;1912318;75;21147;-79
2021/08/26 12:42:19;;;;;;;4.62;3.90;;;18.00;99.90;;;;;;1912289;75;21176;-79